createdAt,value
2022-12-29T00:02:15.286Z,3.67
2022-12-29T00:04:42.464Z,5.95
2022-12-29T00:07:09.488Z,5.65
2022-12-29T00:09:38.277Z,1.75
2022-12-29T00:12:06.030Z,3.15
2022-12-29T00:14:51.779Z,2.65
2022-12-29T00:17:18.934Z,4.82
2022-12-29T00:20:04.596Z,4.68
2022-12-29T00:22:51.645Z,5.18
2022-12-29T00:25:37.435Z,3.55
2022-12-29T00:28:23.160Z,3.67
2022-12-29T00:31:08.859Z,3.97
2022-12-29T00:33:58.094Z,3.03
2022-12-29T00:36:31.200Z,3.58
2022-12-29T00:39:21.852Z,2.35
2022-12-29T00:42:08.243Z,4.60
2022-12-29T00:44:35.364Z,4.47
2022-12-29T00:47:05.984Z,5.63
2022-12-29T00:49:34.277Z,5.43
2022-12-29T00:52:07.328Z,3.42
2022-12-29T00:54:37.127Z,3.05
2022-12-29T00:57:06.175Z,7.22
2022-12-29T00:59:37.445Z,3.42
2022-12-29T01:02:05.670Z,2.58
2022-12-29T01:04:33.135Z,5.10
2022-12-29T01:07:00.227Z,2.97
2022-12-29T01:09:45.732Z,5.10
2022-12-29T01:12:12.936Z,3.38
2022-12-29T01:14:40.437Z,4.93
2022-12-29T01:17:07.534Z,4.45
2022-12-29T01:19:34.737Z,4.90
2022-12-29T01:22:01.734Z,3.67
2022-12-29T01:24:29.171Z,3.67
2022-12-29T01:26:56.205Z,3.58
2022-12-29T01:29:23.602Z,5.97
2022-12-29T01:31:51.211Z,4.55
2022-12-29T01:34:19.165Z,4.03
2022-12-29T01:36:46.454Z,4.40
2022-12-29T01:39:14.344Z,5.30
2022-12-29T01:41:42.808Z,2.45
2022-12-29T01:44:47.428Z,5.65
2022-12-29T01:47:24.610Z,6.20
2022-12-29T01:49:55.224Z,2.72
2022-12-29T01:52:25.456Z,6.00
2022-12-29T01:54:56.280Z,5.10
2022-12-29T01:57:29.873Z,6.30
2022-12-29T02:00:09.715Z,3.10
2022-12-29T02:02:55.084Z,4.15
2022-12-29T02:05:40.604Z,6.07
2022-12-29T02:08:09.423Z,4.70
2022-12-29T02:10:37.231Z,8.95
2022-12-29T02:13:04.642Z,5.75
2022-12-29T02:16:16.606Z,4.90
2022-12-29T02:19:21.296Z,4.60
2022-12-29T02:21:57.364Z,6.13
2022-12-29T02:24:52.122Z,4.13
2022-12-29T02:27:25.138Z,4.88
2022-12-29T02:30:37.302Z,6.70
2022-12-29T02:33:25.650Z,5.00
2022-12-29T02:36:35.602Z,6.63
2022-12-29T02:39:10.786Z,6.07
2022-12-29T02:42:08.411Z,7.80
2022-12-29T02:44:44.411Z,4.22
2022-12-29T02:47:45.101Z,4.55
2022-12-29T02:50:24.924Z,4.05
2022-12-29T02:52:59.461Z,4.88
2022-12-29T02:55:26.747Z,4.22
2022-12-29T02:58:20.886Z,3.35
2022-12-29T03:01:24.637Z,6.85
2022-12-29T03:04:19.425Z,5.70
2022-12-29T03:07:09.749Z,3.92
2022-12-29T03:10:01.332Z,5.88
2022-12-29T03:13:03.273Z,5.88
2022-12-29T03:16:04.503Z,5.43
2022-12-29T03:19:11.816Z,5.80
2022-12-29T03:22:01.174Z,5.82
2022-12-29T03:24:39.410Z,5.72
2022-12-29T03:27:10.379Z,5.20
2022-12-29T03:29:46.615Z,5.00
2022-12-29T03:32:16.379Z,6.07
2022-12-29T03:34:46.248Z,6.68
2022-12-29T03:37:17.920Z,3.60
2022-12-29T03:39:46.432Z,4.15
2022-12-29T03:42:18.767Z,4.35
2022-12-29T03:44:47.198Z,6.28
2022-12-29T03:47:16.375Z,5.25
2022-12-29T03:49:45.910Z,6.93
2022-12-29T03:52:12.913Z,6.13
2022-12-29T03:54:43.797Z,5.22
2022-12-29T03:57:12.170Z,4.55
2022-12-29T03:59:52.636Z,6.10
2022-12-29T04:02:19.899Z,5.75
2022-12-29T04:04:47.732Z,5.88
2022-12-29T04:07:14.779Z,7.07
2022-12-29T04:09:42.951Z,5.55
2022-12-29T04:12:15.493Z,4.50
2022-12-29T04:14:42.676Z,5.50
2022-12-29T04:17:09.771Z,4.55
2022-12-29T04:19:36.827Z,5.35
2022-12-29T04:22:04.331Z,6.22
2022-12-29T04:24:31.570Z,4.90
2022-12-29T04:27:00.399Z,3.90
2022-12-29T04:29:58.431Z,4.60
2022-12-29T04:32:45.741Z,4.88
2022-12-29T04:35:12.823Z,5.05
2022-12-29T04:37:40.516Z,5.95
2022-12-29T04:40:08.213Z,4.30
2022-12-29T04:42:35.158Z,4.18
2022-12-29T04:45:03.292Z,6.75
2022-12-29T04:47:38.120Z,4.97
2022-12-29T04:50:23.487Z,4.03
2022-12-29T04:53:18.306Z,4.75
2022-12-29T04:55:57.905Z,5.22
2022-12-29T04:58:24.855Z,5.72
2022-12-29T05:00:53.882Z,4.05
2022-12-29T05:03:25.171Z,4.93
2022-12-29T05:05:56.225Z,4.70
2022-12-29T05:08:28.025Z,5.07
2022-12-29T05:10:56.678Z,4.93
2022-12-29T05:13:23.642Z,4.40
2022-12-29T05:15:54.555Z,4.80
2022-12-29T05:18:23.598Z,4.97
2022-12-29T05:20:50.746Z,7.82
2022-12-29T05:23:19.530Z,6.30
2022-12-29T05:25:52.112Z,5.80
2022-12-29T05:28:40.598Z,4.68
2022-12-29T05:31:14.291Z,3.45
2022-12-29T05:33:41.481Z,6.78
2022-12-29T05:36:10.363Z,5.63
2022-12-29T05:38:41.065Z,5.97
2022-12-29T05:41:09.024Z,6.38
2022-12-29T05:44:02.657Z,9.32
2022-12-29T05:46:33.890Z,4.18
2022-12-29T05:49:27.184Z,6.75
2022-12-29T05:52:09.788Z,6.10
2022-12-29T05:54:37.493Z,9.43
2022-12-29T05:57:11.505Z,5.85
2022-12-29T05:59:40.024Z,6.85
2022-12-29T06:02:07.428Z,7.50
2022-12-29T06:04:35.556Z,6.47
2022-12-29T06:07:03.169Z,8.45
2022-12-29T06:09:40.249Z,5.70
2022-12-29T06:12:09.336Z,6.78
2022-12-29T06:14:38.264Z,8.00
2022-12-29T06:17:05.662Z,6.95
2022-12-29T06:19:33.570Z,6.45
2022-12-29T06:22:00.621Z,8.18
2022-12-29T06:24:36.171Z,6.63
2022-12-29T06:27:03.636Z,7.53
2022-12-29T06:29:30.876Z,6.15
2022-12-29T06:31:59.425Z,3.78
2022-12-29T06:34:30.482Z,7.30
2022-12-29T06:36:57.468Z,4.65
2022-12-29T06:39:24.452Z,7.00
2022-12-29T06:42:02.395Z,8.32
2022-12-29T06:44:47.268Z,7.03
2022-12-29T06:47:14.379Z,7.13
2022-12-29T06:49:44.203Z,9.63
2022-12-29T06:52:27.053Z,6.82
2022-12-29T06:54:55.773Z,4.53
2022-12-29T06:57:23.090Z,10.10
2022-12-29T06:59:50.137Z,8.25
2022-12-29T07:02:21.077Z,8.88
2022-12-29T07:04:48.395Z,10.02
2022-12-29T07:07:18.702Z,7.47
2022-12-29T07:09:46.148Z,7.85
2022-12-29T07:12:13.357Z,8.75
2022-12-29T07:14:43.480Z,7.18
2022-12-29T07:17:10.956Z,9.73
2022-12-29T07:19:37.923Z,8.75
2022-12-29T07:22:05.091Z,9.10
2022-12-29T07:24:32.228Z,7.75
2022-12-29T07:27:03.621Z,7.38
2022-12-29T07:29:38.718Z,6.95
2022-12-29T07:32:06.545Z,9.90
2022-12-29T07:34:33.645Z,9.77
2022-12-29T07:37:09.492Z,7.55
2022-12-29T07:39:36.528Z,7.15
2022-12-29T07:42:06.061Z,6.60
2022-12-29T07:44:42.595Z,8.57
2022-12-29T07:50:03.308Z,7.03
2022-12-29T07:52:31.207Z,7.80
2022-12-29T07:55:09.954Z,7.20
2022-12-29T07:57:36.911Z,9.30
2022-12-29T08:00:04.874Z,8.48
2022-12-29T08:02:39.306Z,9.07
2022-12-29T08:05:07.043Z,10.13
2022-12-29T08:07:34.189Z,9.02
2022-12-29T08:10:06.004Z,9.15
2022-12-29T08:13:07.225Z,8.98
2022-12-29T08:16:11.944Z,10.63
2022-12-29T08:18:40.213Z,11.15
2022-12-29T08:21:07.719Z,11.65
2022-12-29T08:24:05.440Z,10.40
2022-12-29T08:27:17.982Z,10.98
2022-12-29T08:30:14.964Z,11.40
2022-12-29T08:33:08.954Z,10.10
2022-12-29T08:35:36.107Z,9.63
2022-12-29T08:38:28.092Z,9.55
2022-12-29T08:45:13.891Z,8.50
2022-12-29T08:47:41.068Z,9.80
2022-12-29T08:50:08.689Z,9.88
2022-12-29T08:52:52.428Z,11.85
2022-12-29T09:06:40.270Z,7.80
2022-12-29T09:09:04.060Z,8.85
2022-12-29T09:11:39.864Z,6.70
2022-12-29T09:14:15.220Z,8.32
2022-12-29T09:17:07.443Z,7.22
2022-12-29T09:19:38.076Z,8.95
2022-12-29T09:22:32.430Z,10.88
2022-12-29T09:27:45.041Z,10.88
2022-12-29T09:30:18.405Z,10.20
2022-12-29T09:32:47.010Z,8.88
2022-12-29T09:35:23.742Z,9.95
2022-12-29T09:37:51.156Z,9.77
2022-12-29T09:40:53.911Z,8.68
2022-12-29T09:46:05.801Z,12.32
2022-12-29T09:48:46.807Z,10.65
2022-12-29T09:51:25.248Z,8.10
2022-12-29T09:54:22.819Z,8.68
2022-12-29T09:56:54.361Z,9.48
2022-12-29T10:00:11.750Z,9.57
2022-12-29T10:11:13.712Z,10.23
2022-12-29T10:15:11.251Z,7.10
2022-12-29T10:18:14.186Z,10.32
2022-12-29T10:22:18.616Z,10.23
2022-12-29T10:25:41.165Z,10.77
2022-12-29T10:29:24.424Z,8.75
2022-12-29T10:32:11.849Z,9.05
2022-12-29T10:42:25.564Z,7.65
2022-12-29T10:45:39.231Z,7.10
2022-12-29T11:01:44.918Z,6.60
2022-12-29T11:25:21.377Z,8.95
2022-12-29T11:28:15.310Z,9.63
2022-12-29T11:30:43.943Z,10.73
2022-12-29T11:38:03.797Z,8.10
2022-12-29T11:41:18.402Z,13.60
2022-12-29T11:56:29.265Z,8.48
2022-12-29T11:59:28.807Z,7.23
2022-12-29T12:02:01.323Z,9.75
2022-12-29T12:04:35.750Z,12.02
2022-12-29T12:07:12.108Z,10.93
2022-12-29T12:10:06.622Z,10.50
2022-12-29T12:12:41.776Z,9.80
2022-12-29T12:15:57.104Z,10.65
2022-12-29T12:18:40.796Z,11.43
2022-12-29T12:21:46.117Z,9.90
2022-12-29T12:25:05.024Z,10.35
2022-12-29T12:29:14.227Z,9.73
2022-12-29T12:32:26.840Z,9.88
2022-12-29T12:35:02.282Z,14.27
2022-12-29T12:38:15.346Z,10.82
2022-12-29T12:41:22.245Z,11.23
2022-12-29T12:44:42.536Z,11.80
2022-12-29T12:47:31.355Z,11.73
2022-12-29T12:50:18.528Z,13.73
2022-12-29T12:53:31.619Z,10.98
2022-12-29T12:56:20.369Z,15.07
2022-12-29T12:58:55.445Z,15.13
2022-12-29T13:02:17.491Z,10.68
2022-12-29T13:05:26.194Z,10.80
2022-12-29T13:09:00.890Z,11.85
2022-12-29T13:11:53.248Z,13.02
2022-12-29T13:14:49.094Z,12.07
2022-12-29T13:17:25.422Z,14.57
2022-12-29T13:20:11.447Z,12.60
2022-12-29T13:22:49.144Z,12.30
2022-12-29T13:26:12.061Z,12.80
2022-12-29T13:32:59.079Z,13.43
2022-12-29T13:36:14.102Z,13.07
2022-12-29T13:39:04.956Z,11.70
2022-12-29T13:42:20.396Z,11.50
2022-12-29T13:45:05.211Z,11.02
2022-12-29T13:48:50.181Z,11.85
2022-12-29T13:51:28.515Z,11.35
2022-12-29T13:54:44.975Z,13.55
2022-12-29T14:01:24.633Z,11.25
2022-12-29T14:04:06.745Z,14.93
2022-12-29T14:06:43.740Z,11.32
2022-12-29T14:10:00.980Z,11.60
2022-12-29T14:12:54.452Z,11.43
2022-12-29T14:15:48.933Z,13.05
2022-12-29T14:21:31.553Z,13.55
2022-12-29T14:24:34.093Z,13.82
2022-12-29T14:27:10.780Z,14.27
2022-12-29T14:29:41.037Z,14.32
2022-12-29T14:32:26.723Z,11.68
2022-12-29T14:35:00.594Z,17.63
2022-12-29T14:37:31.748Z,13.02
2022-12-29T14:40:28.362Z,13.82
2022-12-29T14:42:57.916Z,13.70
2022-12-29T14:45:38.587Z,14.05
2022-12-29T14:48:39.561Z,11.05
2022-12-29T14:51:32.265Z,11.52
2022-12-29T14:54:41.920Z,12.60
2022-12-29T14:57:24.823Z,13.65
2022-12-29T15:00:09.581Z,13.50
2022-12-29T15:02:44.863Z,14.38
2022-12-29T15:05:36.281Z,14.27
2022-12-29T15:08:13.495Z,16.90
2022-12-29T15:11:04.098Z,15.40
2022-12-29T15:14:43.777Z,15.60
2022-12-29T15:21:25.696Z,15.25
2022-12-29T15:23:57.774Z,15.88
2022-12-29T15:26:48.902Z,14.43
2022-12-29T15:29:38.487Z,16.63
2022-12-29T15:32:17.034Z,14.70
2022-12-29T15:34:59.347Z,17.13
2022-12-29T15:37:38.318Z,16.38
2022-12-29T15:40:06.590Z,18.15
2022-12-29T15:42:59.899Z,19.02
2022-12-29T15:45:37.149Z,15.70
2022-12-29T15:48:12.836Z,14.48
2022-12-29T15:50:44.305Z,18.85
2022-12-29T15:53:21.799Z,15.38
2022-12-29T15:55:57.102Z,17.83
2022-12-29T15:58:31.097Z,15.25
2022-12-29T16:01:01.586Z,15.00
2022-12-29T16:03:34.026Z,17.88
2022-12-29T16:06:12.938Z,14.70
2022-12-29T16:08:42.020Z,14.90
2022-12-29T16:11:28.920Z,17.17
2022-12-29T16:13:57.292Z,19.23
2022-12-29T16:16:36.720Z,19.50
2022-12-29T16:19:23.620Z,16.73
2022-12-29T16:21:51.381Z,14.98
2022-12-29T16:24:24.462Z,18.15
2022-12-29T16:27:14.507Z,14.10
2022-12-29T16:29:44.267Z,16.70
2022-12-29T16:32:32.361Z,17.42
2022-12-29T16:35:22.108Z,17.48
2022-12-29T16:38:18.140Z,15.60
2022-12-29T16:41:09.865Z,16.05
2022-12-29T16:43:45.765Z,15.18
2022-12-29T16:46:24.154Z,15.73
2022-12-29T16:48:55.663Z,17.13
2022-12-29T16:51:33.278Z,19.05
2022-12-29T16:54:01.700Z,20.55
2022-12-29T16:56:33.957Z,19.23
2022-12-29T16:59:31.658Z,22.00
2022-12-29T17:02:02.388Z,17.55
2022-12-29T17:05:09.898Z,20.50
2022-12-29T17:07:37.229Z,15.10
2022-12-29T17:10:12.391Z,15.63
2022-12-29T17:13:13.480Z,15.07
2022-12-29T17:15:39.044Z,15.23
2022-12-29T17:18:38.936Z,15.45
2022-12-29T17:21:15.075Z,15.85
2022-12-29T17:23:47.999Z,15.88
2022-12-29T17:29:43.198Z,17.45
2022-12-29T17:33:01.153Z,17.02
2022-12-29T17:35:29.147Z,20.42
2022-12-29T17:37:56.350Z,17.52
2022-12-29T17:40:56.811Z,17.77
2022-12-29T17:47:52.353Z,17.70
2022-12-29T17:53:01.011Z,13.80
2022-12-29T17:55:38.283Z,17.42
2022-12-29T17:58:19.779Z,14.93
2022-12-29T18:00:58.075Z,13.73
2022-12-29T18:03:27.976Z,18.50
2022-12-29T18:05:55.786Z,18.50
2022-12-29T18:08:22.959Z,21.45
2022-12-29T18:10:54.075Z,17.98
2022-12-29T18:13:37.315Z,19.05
2022-12-29T18:16:14.856Z,18.70
2022-12-29T18:18:42.814Z,19.13
2022-12-29T18:21:20.730Z,16.42
2022-12-29T18:23:51.129Z,16.33
2022-12-29T18:26:31.803Z,16.48
2022-12-29T18:28:59.517Z,18.05
2022-12-29T18:31:29.637Z,17.40
2022-12-29T18:33:58.796Z,19.27
2022-12-29T18:36:27.326Z,16.67
2022-12-29T18:38:55.014Z,16.13
2022-12-29T18:41:32.457Z,14.88
2022-12-29T18:44:02.227Z,18.35
2022-12-29T18:47:07.667Z,15.85
2022-12-29T18:50:04.175Z,19.83
2022-12-29T19:01:41.748Z,17.25
2022-12-29T19:04:14.256Z,16.60
2022-12-29T19:07:43.634Z,20.30
2022-12-29T19:11:21.594Z,25.83
2022-12-29T19:13:48.948Z,19.88
2022-12-29T19:16:31.340Z,19.95
2022-12-29T19:19:37.771Z,18.25
2022-12-29T19:22:11.118Z,16.30
2022-12-29T19:25:03.121Z,17.27
2022-12-29T19:27:31.986Z,22.10
2022-12-29T19:30:04.274Z,18.52
2022-12-29T19:32:31.908Z,24.10
2022-12-29T19:35:19.421Z,17.45
2022-12-29T19:38:10.863Z,18.13
2022-12-29T19:45:28.919Z,17.67
2022-12-29T19:48:20.305Z,18.70
2022-12-29T19:50:50.989Z,20.65
2022-12-29T19:53:30.036Z,19.13
2022-12-29T19:56:04.009Z,22.42
2022-12-29T20:01:19.970Z,16.80
2022-12-29T20:03:53.433Z,21.27
2022-12-29T20:06:23.815Z,19.17
2022-12-29T20:30:38.650Z,19.83
2022-12-29T20:40:27.693Z,18.13
2022-12-29T20:49:58.338Z,18.13
2022-12-29T20:52:34.704Z,18.15
2022-12-29T21:00:29.234Z,14.23
2022-12-29T21:16:33.149Z,15.32
2022-12-29T21:24:17.502Z,17.52
2022-12-29T21:35:12.846Z,19.55
2022-12-29T21:38:47.674Z,19.33
2022-12-29T21:45:02.568Z,17.30
2022-12-29T21:48:09.305Z,19.20
2022-12-29T21:51:13.294Z,16.98
2022-12-29T22:14:01.945Z,16.42
2022-12-29T22:17:48.338Z,18.02
2022-12-29T22:20:43.345Z,15.50
2022-12-29T22:26:14.455Z,18.95
2022-12-29T22:29:48.547Z,16.02
2022-12-29T22:37:13.419Z,16.00
2022-12-29T22:41:17.789Z,18.23
2022-12-29T22:44:28.042Z,16.15
2022-12-29T22:48:14.265Z,16.98
2022-12-29T22:51:07.518Z,15.95
2022-12-29T23:09:31.716Z,19.25
2022-12-29T23:12:32.053Z,15.77
2022-12-29T23:15:21.455Z,13.95
2022-12-29T23:18:12.288Z,16.65
2022-12-29T23:20:46.179Z,17.95
2022-12-29T23:24:04.592Z,17.02
2022-12-29T23:26:49.839Z,15.00
2022-12-29T23:29:32.611Z,16.17
2022-12-29T23:40:38.943Z,15.48
2022-12-29T23:43:30.923Z,15.77
2022-12-29T23:46:59.193Z,16.15
2022-12-29T23:49:42.824Z,15.85
2022-12-29T23:52:18.234Z,15.88
2022-12-29T23:59:06.498Z,14.93
